Terminal Aerodrome Forecast
Issued by NWS

Home | Current Version | Previous Version | Text Only | Print | Product List | Glossary On
Versions: 1 2 3 4 5 6 7 8 9 10 11 12 13 14 15 16 17 18 19 20 21 22 23 24 25
000
FTUS41 KILN 291012 AAA
TAFLCK
TAF AMD
KLCK 291012Z 2910/3006 00000KT 4SM BR FEW004 SCT150
     FM291300 VRB03KT P6SM BKN025
     FM291600 19004KT P6SM VCTS BKN040CB BKN150
     FM300100 00000KT P6SM SCT030 BKN150=

USA.gov is the U.S. government's official web portal to all federal, state and local government web resources and services.